Time;durP1;ratioP1;P1;durP2;ratioP2;P2;SDS_P1;SDS_P2;PMS_P1;PMS_P2;Temp;Humidity;BMP_temperature;BMP_pressure;BME280_temperature;BME280_humidity;BME280_pressure;Samples;Min_cycle;Max_cycle;Signal;HPM_P1;HPM_P2
2022/11/18 00:02:06;;;;;;;14.20;6.15;;;;;;;10.40;97.92;98131.06;6147809;22;20029;-81
2022/11/18 00:04:33;;;;;;;5.93;4.18;;;;;;;10.42;98.05;98137.03;6148088;23;20043;-82
2022/11/18 00:06:59;;;;;;;8.80;3.97;;;;;;;10.41;97.97;98132.72;6173376;23;20127;-81
2022/11/18 00:09:26;;;;;;;7.63;3.85;;;;;;;10.41;97.68;98129.25;6197656;23;20349;-81
2022/11/18 00:14:38;;;;;;;6.63;3.15;;;;;;;10.32;97.36;98120.50;6197276;22;20104;-82
2022/11/18 00:17:06;;;;;;;6.10;2.92;;;;;;;10.29;97.23;98128.84;6123941;23;20052;-82
2022/11/18 00:19:35;;;;;;;5.88;3.13;;;;;;;10.30;96.84;98127.81;6147890;23;20096;-82
2022/11/18 00:22:03;;;;;;;5.38;3.05;;;;;;;10.27;97.17;98127.31;6123108;23;20083;-82
2022/11/18 00:24:30;;;;;;;5.70;2.60;;;;;;;10.28;96.98;98124.53;6197743;22;20023;-82
2022/11/18 00:26:57;;;;;;;8.18;2.95;;;;;;;10.33;96.68;98122.19;6148600;23;20349;-81
2022/11/18 00:29:27;;;;;;;7.80;4.50;;;;;;;10.35;96.98;98129.94;6124398;23;20103;-82
2022/11/18 00:31:55;;;;;;;8.75;3.97;;;;;;;10.32;97.18;98125.81;6123481;23;20032;-82
2022/11/18 00:34:23;;;;;;;8.38;3.72;;;;;;;10.33;96.96;98124.84;6121010;22;20016;-82
2022/11/18 00:36:49;;;;;;;7.35;2.90;;;;;;;10.36;96.87;98131.63;6166750;23;20049;-82
2022/11/18 00:39:18;;;;;;;6.32;2.75;;;;;;;10.36;97.05;98121.81;6147599;23;20399;-82
2022/11/18 00:44:31;;;;;;;3.95;2.30;;;;;;;10.32;97.82;98130.31;6103007;23;20096;-82
2022/11/18 00:46:58;;;;;;;8.95;2.67;;;;;;;10.35;97.38;98124.66;6146656;23;20033;-82
2022/11/18 00:49:25;;;;;;;6.50;3.70;;;;;;;10.33;97.12;98113.38;6123534;23;20028;-82
2022/11/18 00:51:52;;;;;;;5.95;2.88;;;;;;;10.37;97.12;98126.13;6122683;23;20020;-82
2022/11/18 00:54:19;;;;;;;6.15;2.90;;;;;;;10.33;97.56;98124.84;6147716;23;20025;-82
2022/11/18 00:56:46;;;;;;;7.40;2.80;;;;;;;10.31;97.65;98123.38;6148173;23;20049;-82
2022/11/18 00:59:13;;;;;;;4.53;2.78;;;;;;;10.32;97.99;98125.00;6122354;23;20040;-82
2022/11/18 01:01:40;;;;;;;4.40;2.13;;;;;;;10.34;98.19;98130.97;6122822;23;20407;-82
2022/11/18 01:04:07;;;;;;;4.00;2.00;;;;;;;10.35;98.04;98130.78;6148333;23;20323;-82
2022/11/18 01:06:34;;;;;;;5.53;2.30;;;;;;;10.36;97.75;98127.13;6146850;23;20021;-82
2022/11/18 01:09:01;;;;;;;2.85;1.83;;;;;;;10.37;97.77;98138.56;6172444;23;20021;-82
2022/11/18 01:14:13;;;;;;;3.55;1.70;;;;;;;10.37;97.86;98131.44;6075613;23;20024;-81
2022/11/18 01:16:40;;;;;;;2.67;2.13;;;;;;;10.40;97.49;98140.84;6147816;23;20100;-81
2022/11/18 01:19:06;;;;;;;6.43;2.28;;;;;;;10.38;97.69;98142.84;6123978;23;20453;-82
2022/11/18 01:21:33;;;;;;;4.22;2.55;;;;;;;10.38;97.85;98141.06;6147222;23;20021;-82
2022/11/18 01:24:00;;;;;;;4.85;1.92;;;;;;;10.34;97.41;98147.69;6123534;23;20033;-82
2022/11/18 01:26:27;;;;;;;3.95;2.05;;;;;;;10.34;97.53;98147.69;6147129;23;20185;-82
2022/11/18 01:28:56;;;;;;;3.63;2.40;;;;;;;10.33;97.34;98151.38;6146721;23;20076;-81
2022/11/18 01:31:23;;;;;;;5.00;2.50;;;;;;;10.32;97.58;98151.53;6122534;23;20076;-82
2022/11/18 01:33:50;;;;;;;6.00;3.22;;;;;;;10.30;97.60;98151.69;6123287;23;20603;-82
2022/11/18 01:36:22;;;;;;;8.10;2.30;;;;;;;10.27;97.38;98148.53;6117612;23;20025;-82
2022/11/18 01:38:49;;;;;;;4.47;2.17;;;;;;;10.34;97.96;98149.53;6147413;23;20025;-82
2022/11/18 01:41:17;;;;;;;2.92;1.88;;;;;;;10.33;97.48;98146.06;6171518;23;20025;-82
2022/11/18 01:43:50;;;;;;;4.05;2.40;;;;;;;10.30;97.50;98149.03;6098496;23;20020;-82
2022/11/18 01:46:17;;;;;;;2.72;2.03;;;;;;;10.35;97.63;98145.88;6172126;23;20381;-82
2022/11/18 01:48:45;;;;;;;4.00;1.92;;;;;;;10.34;97.62;98145.03;6171517;23;20041;-82
2022/11/18 01:51:15;;;;;;;3.15;1.80;;;;;;;10.31;97.43;98149.91;6172321;23;20096;-82
2022/11/18 01:53:49;;;;;;;5.97;1.95;;;;;;;10.25;97.64;98146.06;6147471;23;20354;-82
2022/11/18 01:56:19;;;;;;;3.47;2.05;;;;;;;10.27;97.87;98153.84;6122809;23;20449;-82
2022/11/18 01:58:51;;;;;;;4.75;1.50;;;;;;;10.29;97.62;98157.19;6121996;23;20520;-82
2022/11/18 02:01:18;;;;;;;6.18;2.33;;;;;;;10.33;97.76;98158.47;6146858;23;20024;-82
2022/11/18 02:03:45;;;;;;;2.70;1.95;;;;;;;10.34;97.75;98158.31;6123569;23;20029;-82
2022/11/18 02:06:12;;;;;;;3.17;1.80;;;;;;;10.36;97.38;98166.09;6172087;23;20021;-82
2022/11/18 02:08:40;;;;;;;2.22;1.58;;;;;;;10.36;97.64;98171.41;6146058;23;20031;-82
2022/11/18 02:13:58;;;;;;;7.15;1.60;;;;;;;10.31;97.98;98173.78;6169705;23;20028;-82
2022/11/18 02:16:56;;;;;;;1.83;1.42;;;;;;;10.24;97.38;98170.13;6145631;23;20546;-82
2022/11/18 02:19:34;;;;;;;4.80;1.92;;;;;;;10.27;97.75;98175.91;6077392;23;20367;-82
2022/11/18 02:22:38;;;;;;;2.63;1.35;;;;;;;10.19;97.76;98173.28;6096009;23;20029;-82
2022/11/18 02:25:27;;;;;;;2.90;1.50;;;;;;;10.19;97.97;98173.28;6129645;23;20025;-82
2022/11/18 02:28:20;;;;;;;4.28;1.40;;;;;;;10.22;97.38;98176.41;6113089;23;20059;-82
2022/11/18 02:30:58;;;;;;;4.63;1.47;;;;;;;10.23;97.48;98179.91;6083241;23;20078;-82
2022/11/18 02:33:37;;;;;;;6.32;1.38;;;;;;;10.21;97.48;98184.56;6119315;23;20025;-82
2022/11/18 02:36:12;;;;;;;7.97;1.70;;;;;;;10.24;97.78;98191.34;6096298;23;20018;-82
2022/11/18 02:38:52;;;;;;;3.88;1.33;;;;;;;10.22;97.89;98184.38;6096942;23;20553;-82
2022/11/18 02:41:23;;;;;;;4.25;1.35;;;;;;;10.25;98.00;98190.34;6145443;23;20029;-82
2022/11/18 02:43:55;;;;;;;5.75;1.85;;;;;;;10.21;97.93;98187.22;6172400;23;20025;-83
2022/11/18 02:46:28;;;;;;;3.35;1.23;;;;;;;10.25;97.98;98188.50;6121901;23;20031;-82
2022/11/18 02:48:56;;;;;;;3.42;1.70;;;;;;;10.28;97.94;98187.34;6173139;23;20028;-82
2022/11/18 02:51:25;;;;;;;3.28;1.40;;;;;;;10.26;98.00;98197.31;6148207;23;20032;-82
2022/11/18 02:53:54;;;;;;;5.03;1.33;;;;;;;10.27;97.57;98199.78;6124562;23;20028;-82
2022/11/18 02:56:22;;;;;;;2.00;1.20;;;;;;;10.28;97.60;98196.16;6125583;23;20104;-81
2022/11/18 02:58:48;;;;;;;1.58;1.10;;;;;;;10.28;97.75;98196.16;6173780;23;20092;-81
2022/11/18 03:01:22;;;;;;;4.25;1.63;;;;;;;10.24;97.57;98194.81;6124348;23;20021;-81
2022/11/18 03:03:49;;;;;;;5.20;1.77;;;;;;;10.32;97.96;98194.81;6149423;22;20025;-81
2022/11/18 03:06:28;;;;;;;5.15;2.10;;;;;;;10.25;98.07;98198.28;6124754;23;20021;-82
2022/11/18 03:09:02;;;;;;;4.90;1.65;;;;;;;10.27;98.17;98202.41;6148085;23;20021;-82
2022/11/18 03:11:33;;;;;;;4.78;1.65;;;;;;;10.31;97.85;98202.94;6123922;23;20437;-81
2022/11/18 03:14:19;;;;;;;5.45;2.30;;;;;;;10.27;97.98;98206.91;6145613;23;20021;-81
2022/11/18 03:17:04;;;;;;;3.65;1.85;;;;;;;10.21;97.67;98208.44;6080239;23;20021;-82
2022/11/18 03:19:55;;;;;;;6.70;1.90;;;;;;;10.22;97.60;98210.06;6119434;23;20076;-81
2022/11/18 03:23:01;;;;;;;2.38;1.77;;;;;;;10.18;97.52;98217.56;6123810;23;20036;-81
2022/11/18 03:25:33;;;;;;;4.80;2.03;;;;;;;10.22;97.50;98216.19;6056307;23;20017;-81
2022/11/18 03:28:08;;;;;;;6.03;1.60;;;;;;;10.22;97.57;98220.69;6147995;23;20449;-81
2022/11/18 03:30:38;;;;;;;2.85;1.55;;;;;;;10.24;97.74;98218.69;6119305;23;20457;-81
2022/11/18 03:33:09;;;;;;;5.60;1.60;;;;;;;10.27;97.63;98228.94;6122487;23;20021;-81
2022/11/18 03:35:39;;;;;;;3.58;1.77;;;;;;;10.26;97.60;98231.78;6071114;23;20485;-81
2022/11/18 03:38:13;;;;;;;2.80;1.77;;;;;;;10.27;97.09;98236.91;6096429;23;20044;-81
2022/11/18 03:40:41;;;;;;;3.40;1.55;;;;;;;10.29;97.33;98236.78;6098295;23;20071;-81
2022/11/18 03:43:12;;;;;;;4.28;1.65;;;;;;;10.30;97.04;98244.53;6123245;23;20029;-81
2022/11/18 03:45:43;;;;;;;2.63;1.20;;;;;;;10.24;97.27;98244.41;6146957;23;20087;-81
2022/11/18 03:48:14;;;;;;;3.67;1.50;;;;;;;10.26;97.24;98253.84;6122332;23;20021;-81
2022/11/18 03:51:05;;;;;;;5.25;1.65;;;;;;;10.14;97.15;98252.56;6109834;23;20024;-81
2022/11/18 03:53:36;;;;;;;2.53;1.20;;;;;;;10.33;96.70;98254.00;6092328;23;20088;-81
2022/11/18 03:56:09;;;;;;;3.13;1.30;;;;;;;10.26;96.70;98256.50;6122362;23;20067;-80
2022/11/18 03:58:55;;;;;;;1.60;1.23;;;;;;;10.18;97.56;98254.69;6098769;23;20036;-81
2022/11/18 04:01:30;;;;;;;3.92;1.48;;;;;;;10.28;96.75;98258.97;6143907;23;20026;-81
2022/11/18 04:03:58;;;;;;;3.95;1.30;;;;;;;10.33;97.28;98254.00;6118413;23;20454;-81
2022/11/18 04:06:49;;;;;;;1.92;1.30;;;;;;;10.20;97.10;98257.16;6118002;23;20080;-81
2022/11/18 04:09:23;;;;;;;1.40;0.80;;;;;;;10.19;97.53;98260.81;6047416;23;20029;-81
2022/11/18 04:12:03;;;;;;;4.03;1.20;;;;;;;10.24;97.37;98255.00;6115678;23;20021;-81
2022/11/18 04:14:30;;;;;;;4.32;1.33;;;;;;;10.25;97.71;98264.59;6075920;23;20017;-81
2022/11/18 04:16:56;;;;;;;3.08;1.25;;;;;;;10.28;97.43;98269.59;6170940;23;20025;-81
2022/11/18 04:19:23;;;;;;;3.75;1.15;;;;;;;10.28;97.34;98267.78;6146759;23;20028;-81
2022/11/18 04:21:50;;;;;;;2.67;1.13;;;;;;;10.30;97.02;98268.44;6172067;23;20048;-82
2022/11/18 04:24:17;;;;;;;2.63;1.10;;;;;;;10.33;96.61;98267.25;6091195;23;20048;-81
2022/11/18 04:26:44;;;;;;;2.58;0.85;;;;;;;10.32;96.67;98271.75;6117401;23;20084;-81
2022/11/18 04:29:11;;;;;;;1.40;0.80;;;;;;;10.33;96.37;98269.91;6144850;23;20017;-81
2022/11/18 04:31:38;;;;;;;1.55;0.80;;;;;;;10.34;96.23;98276.88;6096279;23;20392;-82
2022/11/18 04:34:05;;;;;;;5.15;1.33;;;;;;;10.30;96.38;98275.56;6143564;23;20025;-81
2022/11/18 04:36:32;;;;;;;3.33;1.30;;;;;;;10.35;96.04;98282.00;6122194;23;20044;-81
2022/11/18 04:38:59;;;;;;;2.33;0.90;;;;;;;10.33;95.80;98281.38;6147321;23;20017;-81
2022/11/18 04:41:54;;;;;;;2.47;0.80;;;;;;;10.31;95.81;98282.53;6069716;23;20025;-81
2022/11/18 04:44:12;;;;;;;4.03;0.70;;;;;;;10.28;96.06;98274.91;6098198;23;20029;-81
2022/11/18 04:46:40;;;;;;;4.65;0.70;;;;;;;10.29;95.79;98277.41;6122418;23;20028;-82
2022/11/18 04:49:08;;;;;;;0.82;0.40;;;;;;;10.31;95.67;98285.19;6148262;23;20013;-83
2022/11/18 04:51:35;;;;;;;2.30;0.68;;;;;;;10.32;95.60;98278.88;6123419;23;20017;-83
2022/11/18 04:54:02;;;;;;;1.20;0.50;;;;;;;10.31;95.45;98279.88;6148175;23;20051;-83
2022/11/18 04:56:29;;;;;;;1.63;0.68;;;;;;;10.30;95.45;98284.34;6172658;22;20023;-83
2022/11/18 04:59:01;;;;;;;1.33;0.68;;;;;;;10.27;94.52;98276.69;6143623;23;20021;-82
2022/11/18 05:01:28;;;;;;;1.50;1.02;;;;;;;10.32;94.66;98282.34;6054645;23;20029;-82
2022/11/18 05:03:55;;;;;;;4.40;1.20;;;;;;;10.31;94.89;98285.19;6091967;23;20140;-81
2022/11/18 05:06:22;;;;;;;2.08;0.90;;;;;;;10.32;94.89;98289.50;6114143;23;20025;-79
2022/11/18 05:08:49;;;;;;;1.77;0.73;;;;;;;10.33;94.59;98293.78;6114437;23;20044;-81
2022/11/18 05:14:01;;;;;;;1.40;0.65;;;;;;;10.35;94.08;98300.56;6043680;23;20105;-82
2022/11/18 05:16:28;;;;;;;2.15;0.60;;;;;;;10.35;93.88;98302.41;6067446;23;20438;-82
2022/11/18 05:18:55;;;;;;;1.58;0.63;;;;;;;10.38;93.63;98294.09;6133620;23;20032;-80
2022/11/18 05:21:21;;;;;;;3.45;0.50;;;;;;;10.25;93.61;98302.56;6068211;23;20055;-81
2022/11/18 05:23:48;;;;;;;0.95;0.45;;;;;;;10.32;93.40;98303.56;6068060;23;20014;-82
2022/11/18 05:26:15;;;;;;;1.67;0.73;;;;;;;10.33;93.06;98315.88;6115937;23;20022;-82
2022/11/18 05:28:42;;;;;;;3.00;0.70;;;;;;;10.35;93.14;98315.69;6064580;23;20080;-83
2022/11/18 05:31:10;;;;;;;1.55;0.70;;;;;;;10.38;92.86;98333.91;6142233;23;20013;-80
2022/11/18 05:33:37;;;;;;;1.65;0.50;;;;;;;10.38;92.86;98328.59;6065666;23;20048;-81
2022/11/18 05:36:10;;;;;;;1.85;0.80;;;;;;;10.34;92.30;98344.03;6141031;23;20029;-81
2022/11/18 05:38:37;;;;;;;0.55;0.55;;;;;;;10.38;92.81;98344.50;6141122;23;20096;-81
2022/11/18 05:41:04;;;;;;;0.75;0.60;;;;;;;10.39;92.86;98346.19;6143047;23;20053;-81
2022/11/18 05:43:31;;;;;;;0.85;0.60;;;;;;;10.39;92.63;98356.81;6117775;23;20453;-80
2022/11/18 05:45:58;;;;;;;1.00;0.65;;;;;;;10.36;92.98;98357.16;6117969;23;20091;-81
2022/11/18 05:48:25;;;;;;;2.33;0.80;;;;;;;10.35;93.33;98361.59;6118201;23;20032;-82
2022/11/18 05:50:53;;;;;;;2.40;0.82;;;;;;;10.30;93.40;98363.13;6142533;23;20017;-81
2022/11/18 05:53:22;;;;;;;1.17;0.73;;;;;;;10.29;93.34;98358.81;6142311;23;20475;-81
2022/11/18 05:56:24;;;;;;;4.55;0.60;;;;;;;10.29;93.93;98366.78;6147694;23;20017;-81
2022/11/18 05:58:51;;;;;;;3.35;0.80;;;;;;;10.28;94.25;98370.41;6059376;23;20038;-81
2022/11/18 06:01:25;;;;;;;2.85;0.85;;;;;;;10.24;94.06;98369.91;6135743;23;20043;-81
2022/11/18 06:03:51;;;;;;;1.10;0.75;;;;;;;10.27;94.18;98364.25;6125328;23;20479;-78
2022/11/18 06:06:19;;;;;;;0.60;0.60;;;;;;;10.30;93.83;98365.75;6149213;23;20021;-78
2022/11/18 06:08:52;;;;;;;1.00;0.57;;;;;;;10.28;93.63;98367.75;6174422;23;20013;-78
2022/11/18 06:11:19;;;;;;;1.05;0.98;;;;;;;10.27;94.57;98387.31;6122295;23;20089;-78
2022/11/18 06:14:12;;;;;;;1.83;1.00;;;;;;;10.16;94.42;98373.41;6174848;22;20021;-78
2022/11/18 06:16:43;;;;;;;0.65;0.65;;;;;;;10.21;94.44;98380.84;6129353;23;20100;-79
2022/11/18 06:19:10;;;;;;;1.08;0.60;;;;;;;10.26;94.16;98385.66;6100520;23;20099;-78
2022/11/18 06:21:37;;;;;;;2.00;0.80;;;;;;;10.28;93.96;98391.63;6149394;23;20024;-78
2022/11/18 06:24:04;;;;;;;2.97;1.27;;;;;;;10.27;93.91;98390.78;6149125;23;20353;-78
2022/11/18 06:26:31;;;;;;;0.93;0.57;;;;;;;10.28;93.26;98399.59;6149084;23;20041;-78
2022/11/18 06:28:58;;;;;;;0.98;0.57;;;;;;;10.27;93.26;98397.91;6125368;23;20028;-78
2022/11/18 06:31:24;;;;;;;4.00;1.00;;;;;;;10.27;93.01;98404.03;6148272;23;20021;-78
2022/11/18 06:33:51;;;;;;;3.00;0.77;;;;;;;10.28;93.01;98410.22;6124180;23;20049;-78
2022/11/18 06:36:18;;;;;;;1.30;0.95;;;;;;;10.26;93.27;98404.22;6125113;23;20016;-78
2022/11/18 06:38:45;;;;;;;3.00;0.93;;;;;;;10.21;93.34;98410.84;6197790;23;20039;-77
2022/11/18 06:41:11;;;;;;;2.53;0.90;;;;;;;10.21;93.11;98410.03;6172897;23;20094;-79
2022/11/18 06:43:40;;;;;;;2.08;0.80;;;;;;;10.21;93.36;98418.00;6149600;23;20397;-77
2022/11/18 06:48:55;;;;;;;0.75;0.60;;;;;;;10.22;92.88;98435.56;6100791;23;20341;-78
2022/11/18 06:51:22;;;;;;;1.70;0.52;;;;;;;10.21;92.75;98440.03;6148979;23;20500;-78
2022/11/18 06:53:49;;;;;;;2.05;1.10;;;;;;;10.22;92.46;98439.03;6173541;23;20100;-77
2022/11/18 06:56:18;;;;;;;0.70;0.70;;;;;;;10.21;92.66;98439.22;6149396;23;20062;-78
2022/11/18 06:58:44;;;;;;;2.35;1.83;;;;;;;10.20;92.72;98443.69;6148559;23;20017;-78
2022/11/18 07:01:22;;;;;;;2.15;0.80;;;;;;;10.21;92.37;98455.97;6125416;23;20389;-78
2022/11/18 07:03:49;;;;;;;1.95;0.93;;;;;;;10.20;92.38;98458.75;6149286;23;20024;-78
2022/11/18 07:06:21;;;;;;;2.85;1.55;;;;;;;10.13;92.29;98461.28;6198740;23;20424;-79
2022/11/18 07:08:49;;;;;;;1.90;0.93;;;;;;;10.16;92.60;98471.53;6174251;23;20538;-78
2022/11/18 07:11:18;;;;;;;1.50;0.90;;;;;;;10.15;92.35;98467.25;6149746;23;20503;-78
2022/11/18 07:13:45;;;;;;;1.42;1.10;;;;;;;10.18;92.45;98468.75;6174553;23;20028;-77
2022/11/18 07:16:14;;;;;;;2.08;1.38;;;;;;;10.17;92.26;98475.84;6174044;23;20047;-78
2022/11/18 07:18:42;;;;;;;1.05;0.77;;;;;;;10.16;92.30;98468.91;6173129;23;20021;-78
2022/11/18 07:21:14;;;;;;;1.45;1.00;;;;;;;10.13;92.25;98477.19;6173516;23;20357;-78
2022/11/18 07:23:41;;;;;;;3.00;1.30;;;;;;;10.12;92.59;98477.34;6173961;23;20017;-78
2022/11/18 07:26:08;;;;;;;3.33;1.10;;;;;;;10.14;93.03;98491.28;6147548;23;20021;-78
2022/11/18 07:28:36;;;;;;;1.98;1.23;;;;;;;10.09;93.64;98491.75;6173405;23;20020;-78
2022/11/18 07:31:20;;;;;;;2.40;1.20;;;;;;;10.00;92.94;98492.78;6173678;23;20349;-78
2022/11/18 07:33:48;;;;;;;3.05;2.15;;;;;;;10.12;93.10;98498.56;6076143;23;20048;-78
2022/11/18 07:36:19;;;;;;;2.70;1.60;;;;;;;10.06;93.30;98499.25;6197718;23;20404;-78
2022/11/18 07:38:47;;;;;;;1.70;1.60;;;;;;;10.10;93.22;98503.19;6173371;22;20361;-78
2022/11/18 07:41:19;;;;;;;3.75;2.80;;;;;;;10.12;93.00;98501.22;6123523;23;20516;-78
2022/11/18 07:43:46;;;;;;;1.67;1.40;;;;;;;10.12;92.94;98503.88;6148588;23;20345;-78
2022/11/18 07:46:16;;;;;;;1.95;0.98;;;;;;;10.11;92.63;98508.34;6124132;23;20032;-78
2022/11/18 07:48:44;;;;;;;3.45;0.80;;;;;;;10.14;92.56;98513.31;6148344;23;20349;-79
2022/11/18 07:51:11;;;;;;;1.60;1.20;;;;;;;10.13;92.77;98513.50;6122319;23;20990;-80
2022/11/18 07:53:38;;;;;;;2.60;1.42;;;;;;;10.10;92.84;98529.72;6172573;23;20028;-78
2022/11/18 07:56:06;;;;;;;1.88;1.08;;;;;;;10.09;92.98;98528.91;6124101;23;20025;-78
2022/11/18 07:58:33;;;;;;;1.27;1.00;;;;;;;10.05;93.12;98535.53;6148266;23;20391;-78
2022/11/18 08:01:11;;;;;;;2.45;0.98;;;;;;;10.04;92.36;98533.88;6147841;23;20068;-78
2022/11/18 08:03:39;;;;;;;1.80;0.90;;;;;;;10.10;92.84;98540.34;6149170;22;20027;-77
2022/11/18 08:06:06;;;;;;;2.65;0.80;;;;;;;10.08;92.93;98531.72;6123864;23;20021;-77
2022/11/18 08:08:34;;;;;;;2.88;1.00;;;;;;;10.09;92.24;98544.81;6123499;23;21064;-78
2022/11/18 08:11:05;;;;;;;1.42;0.80;;;;;;;10.08;92.93;98545.00;6124520;23;20016;-78
2022/11/18 08:13:32;;;;;;;2.15;0.73;;;;;;;10.06;92.26;98547.78;6173238;23;20029;-77
2022/11/18 08:15:59;;;;;;;1.20;0.80;;;;;;;10.09;91.82;98555.41;6124437;23;20028;-78
2022/11/18 08:18:28;;;;;;;1.17;1.05;;;;;;;10.08;91.58;98559.06;6172643;23;20044;-79
2022/11/18 08:20:54;;;;;;;0.80;0.68;;;;;;;10.07;92.10;98556.56;6149516;23;20075;-78
2022/11/18 08:23:21;;;;;;;1.20;0.90;;;;;;;10.09;92.63;98557.25;6173861;23;20353;-77
2022/11/18 08:26:00;;;;;;;1.35;0.75;;;;;;;10.03;92.17;98558.75;6174222;22;20024;-78
2022/11/18 08:28:27;;;;;;;0.60;0.60;;;;;;;10.09;92.12;98562.56;6098320;23;20023;-78
2022/11/18 08:30:54;;;;;;;0.90;0.80;;;;;;;10.08;92.30;98561.72;6148718;23;20340;-78
2022/11/18 08:33:21;;;;;;;1.35;0.90;;;;;;;10.06;92.01;98565.53;6123488;23;20041;-77
2022/11/18 08:35:47;;;;;;;0.73;0.73;;;;;;;10.09;91.03;98567.84;6198469;23;20314;-78
2022/11/18 08:38:14;;;;;;;1.52;0.85;;;;;;;10.09;91.76;98567.84;6147716;23;20416;-78
2022/11/18 08:40:44;;;;;;;1.20;0.57;;;;;;;10.12;91.77;98570.19;6148320;23;20025;-78
2022/11/18 08:43:11;;;;;;;0.88;0.82;;;;;;;10.13;92.02;98562.06;6147418;22;20464;-78
2022/11/18 08:45:38;;;;;;;0.88;0.80;;;;;;;10.14;91.96;98568.19;6148036;23;20368;-77
2022/11/18 08:48:05;;;;;;;2.58;1.10;;;;;;;10.13;92.22;98571.84;6148300;23;20021;-78
2022/11/18 08:50:32;;;;;;;1.95;1.20;;;;;;;10.12;92.49;98578.13;6172730;22;20023;-77
2022/11/18 08:52:59;;;;;;;2.00;1.23;;;;;;;10.17;92.33;98575.81;6173298;22;20025;-77
2022/11/18 08:55:25;;;;;;;1.00;0.95;;;;;;;10.17;92.50;98579.28;6147945;23;20024;-77
2022/11/18 08:57:52;;;;;;;1.45;0.70;;;;;;;10.16;91.96;98577.66;6123326;23;20330;-78
2022/11/18 09:00:19;;;;;;;3.67;0.88;;;;;;;10.13;92.71;98588.59;6172854;23;20099;-77
2022/11/18 09:02:46;;;;;;;0.65;0.65;;;;;;;10.13;92.24;98587.78;6122134;23;20036;-78
2022/11/18 09:05:13;;;;;;;0.90;0.80;;;;;;;10.16;92.71;98582.13;6098932;23;20096;-78
2022/11/18 09:07:40;;;;;;;1.50;0.90;;;;;;;10.20;92.57;98594.06;6148253;23;20025;-78
2022/11/18 09:10:07;;;;;;;0.90;0.90;;;;;;;10.22;92.54;98595.56;6173269;22;20028;-78
2022/11/18 09:12:33;;;;;;;2.83;1.00;;;;;;;10.26;92.29;98589.94;6170401;23;20408;-78
2022/11/18 09:15:01;;;;;;;2.50;1.00;;;;;;;10.23;92.36;98591.09;6123917;23;20024;-78
2022/11/18 09:17:43;;;;;;;0.98;0.90;;;;;;;10.19;92.06;98595.06;6123829;23;20051;-79
2022/11/18 09:20:10;;;;;;;0.80;0.80;;;;;;;10.19;92.46;98595.06;6123843;23;20047;-77
2022/11/18 09:22:38;;;;;;;1.38;0.90;;;;;;;10.21;92.36;98595.72;6172455;23;20340;-78
2022/11/18 09:25:05;;;;;;;0.80;0.80;;;;;;;10.22;92.76;98595.56;6148363;23;20076;-78
2022/11/18 09:27:31;;;;;;;1.25;0.85;;;;;;;10.21;93.09;98599.22;6173655;23;20606;-77
2022/11/18 09:29:58;;;;;;;2.25;0.90;;;;;;;10.26;92.62;98603.22;6099440;23;20516;-78
2022/11/18 09:32:25;;;;;;;1.08;1.00;;;;;;;10.29;92.62;98611.69;6148231;23;20108;-78
2022/11/18 09:34:52;;;;;;;4.20;0.98;;;;;;;10.30;92.60;98609.84;6173123;23;20384;-78
2022/11/18 09:37:18;;;;;;;1.98;1.02;;;;;;;10.32;92.45;98607.88;6172471;23;20412;-77
2022/11/18 09:39:45;;;;;;;1.42;0.85;;;;;;;10.34;92.47;98621.81;6196064;22;20037;-77
2022/11/18 09:42:38;;;;;;;1.20;0.90;;;;;;;10.26;91.84;98614.66;6147629;23;20800;-77
2022/11/18 09:45:20;;;;;;;2.33;1.30;;;;;;;10.33;91.99;98615.69;6081577;23;20021;-78
2022/11/18 09:47:51;;;;;;;2.38;2.17;;;;;;;10.40;92.20;98621.16;6101142;23;20025;-78
2022/11/18 09:50:20;;;;;;;2.70;1.17;;;;;;;10.40;92.15;98624.63;6148568;23;20096;-79
2022/11/18 09:53:21;;;;;;;1.85;1.00;;;;;;;10.34;91.99;98630.59;6056017;23;20024;-80
2022/11/18 09:55:49;;;;;;;1.48;0.95;;;;;;;10.41;92.27;98628.97;6146649;23;20033;-79
2022/11/18 09:58:21;;;;;;;0.85;0.85;;;;;;;10.41;92.17;98628.13;6147952;23;20075;-77
2022/11/18 10:00:47;;;;;;;0.93;0.88;;;;;;;10.45;92.64;98631.28;6122002;23;21514;-78
2022/11/18 10:03:31;;;;;;;1.58;0.95;;;;;;;10.39;92.47;98635.41;6171586;23;20340;-78
2022/11/18 10:06:08;;;;;;;0.80;0.80;;;;;;;10.42;92.52;98638.56;6100438;23;20104;-78
2022/11/18 10:09:13;;;;;;;1.98;1.10;;;;;;;10.41;92.66;98642.22;6123035;23;20017;-78
2022/11/18 10:11:45;;;;;;;1.92;1.05;;;;;;;10.48;92.68;98634.44;6103679;23;20035;-82
2022/11/18 10:14:23;;;;;;;2.20;0.90;;;;;;;10.50;92.51;98642.22;6100900;23;20021;-80
2022/11/18 10:16:57;;;;;;;1.00;0.90;;;;;;;10.50;92.41;98645.69;6145924;23;20017;-78
2022/11/18 10:19:29;;;;;;;1.25;0.85;;;;;;;10.51;92.85;98647.38;6121784;23;20052;-77
2022/11/18 10:22:09;;;;;;;1.38;0.80;;;;;;;10.46;92.85;98647.03;6195650;23;20093;-78
2022/11/18 10:24:54;;;;;;;2.45;1.10;;;;;;;10.48;93.05;98655.69;6101217;23;20345;-78
2022/11/18 10:27:25;;;;;;;1.45;1.00;;;;;;;10.52;93.04;98649.03;6122428;23;20345;-78
2022/11/18 10:29:54;;;;;;;1.45;1.20;;;;;;;10.53;92.83;98647.19;6145707;23;20056;-80
2022/11/18 10:32:21;;;;;;;1.70;1.05;;;;;;;10.55;93.11;98647.88;6122744;23;20045;-77
2022/11/18 10:34:56;;;;;;;1.88;1.23;;;;;;;10.54;93.16;98652.34;6171744;23;20365;-78
2022/11/18 10:37:27;;;;;;;3.75;1.20;;;;;;;10.58;93.09;98651.03;6146856;23;20357;-78
2022/11/18 10:40:24;;;;;;;4.10;1.40;;;;;;;10.57;92.88;98652.03;6053088;23;20048;-79
2022/11/18 10:42:50;;;;;;;1.77;1.38;;;;;;;10.61;92.94;98645.41;6141196;23;20076;-77
2022/11/18 10:45:20;;;;;;;1.88;1.70;;;;;;;10.62;92.66;98651.53;6122553;23;20024;-78
2022/11/18 10:47:57;;;;;;;3.60;1.63;;;;;;;10.59;92.83;98657.19;6172744;23;20021;-78
2022/11/18 10:50:33;;;;;;;1.45;1.35;;;;;;;10.60;93.27;98661.47;6158680;23;20036;-78
2022/11/18 10:53:00;;;;;;;1.55;1.20;;;;;;;10.64;93.57;98660.16;6076093;23;20017;-78
2022/11/18 10:55:28;;;;;;;5.55;1.45;;;;;;;10.65;93.42;98651.19;6123375;23;20557;-78
2022/11/18 10:57:59;;;;;;;1.50;1.33;;;;;;;10.65;93.16;98662.63;6147136;23;20109;-78
2022/11/18 11:00:43;;;;;;;2.33;1.60;;;;;;;10.59;93.53;98658.00;6050670;23;20025;-78
2022/11/18 11:03:20;;;;;;;1.92;1.52;;;;;;;10.60;93.17;98659.66;6077996;23;20017;-78
2022/11/18 11:05:47;;;;;;;2.78;1.90;;;;;;;10.62;92.00;98660.31;6099303;23;20049;-78
2022/11/18 11:08:22;;;;;;;3.67;2.85;;;;;;;10.57;91.71;98667.13;6124179;23;20389;-78
2022/11/18 11:11:03;;;;;;;2.78;2.15;;;;;;;10.60;92.42;98659.66;6102645;23;20353;-78
2022/11/18 11:13:31;;;;;;;2.90;2.50;;;;;;;10.63;92.61;98664.66;6146324;23;20021;-78
2022/11/18 11:16:00;;;;;;;3.67;1.90;;;;;;;10.64;92.71;98660.16;6148087;23;20024;-78
2022/11/18 11:18:41;;;;;;;3.03;2.33;;;;;;;10.64;92.78;98663.66;6146824;23;20025;-78
2022/11/18 11:21:12;;;;;;;3.08;1.80;;;;;;;10.63;92.69;98662.00;6061589;23;20508;-78
2022/11/18 11:23:39;;;;;;;2.22;1.90;;;;;;;10.68;93.27;98665.97;6172581;23;20457;-80
2022/11/18 11:26:13;;;;;;;2.00;1.83;;;;;;;10.65;93.38;98673.25;6150265;23;20384;-78
2022/11/18 11:29:17;;;;;;;3.17;2.25;;;;;;;10.67;93.23;98673.09;6080536;23;20403;-79
2022/11/18 11:32:04;;;;;;;2.75;2.30;;;;;;;10.63;93.48;98674.41;6124220;23;20021;-78
2022/11/18 11:34:43;;;;;;;1.92;1.83;;;;;;;10.63;93.45;98669.97;6150404;23;20032;-79
2022/11/18 11:37:13;;;;;;;2.72;1.90;;;;;;;10.68;93.28;98679.25;6148534;23;20025;-77
2022/11/18 11:40:08;;;;;;;2.80;1.60;;;;;;;10.64;92.92;98676.09;6148133;23;20099;-78
2022/11/18 11:42:58;;;;;;;1.95;1.52;;;;;;;10.63;93.57;98685.88;6106410;23;20771;-77
2022/11/18 11:46:03;;;;;;;3.10;2.10;;;;;;;10.63;94.25;98677.06;6146855;23;20127;-78
2022/11/18 11:49:00;;;;;;;1.83;1.70;;;;;;;10.62;93.86;98683.38;6113033;23;20033;-78
2022/11/18 11:51:32;;;;;;;3.65;1.55;;;;;;;10.69;94.07;98689.72;6061925;23;20293;-77
2022/11/18 11:54:06;;;;;;;3.42;1.90;;;;;;;10.69;94.07;98688.88;6176235;23;20368;-77
2022/11/18 11:56:35;;;;;;;;;;;;;;;10.54;94.24;98689.50;6173164;23;20025;-77
2022/11/18 11:59:13;;;;;;;5.30;2.00;;;;;;;10.63;93.83;98687.69;6173208;23;20327;-78
2022/11/18 12:02:13;;;;;;;2.55;2.10;;;;;;;10.59;93.76;98687.19;6147027;23;20083;-77
2022/11/18 12:04:49;;;;;;;5.53;2.10;;;;;;;10.68;93.78;98692.50;6098387;23;20098;-77
2022/11/18 12:07:28;;;;;;;3.67;2.72;;;;;;;10.62;94.43;98694.81;6147578;23;20405;-78
2022/11/18 12:10:06;;;;;;;5.45;2.67;;;;;;;10.63;94.29;98687.69;6123579;23;20087;-78
2022/11/18 12:12:43;;;;;;;3.05;2.58;;;;;;;10.68;94.58;98681.91;6172871;23;20340;-78